Weather Underground History

Daily Summary for February 16, 2019 Units:  Metric    English   Both
« Previous Day
Next Day »
Daily Weekly Monthly Yearly Custom
  Current: High: Low: Average:
Temperature: 11.1 °C 13.1 °C 6.5 °C 9.7 °C
Dew Point: 8.9 °C 9.2 °C 4.4 °C 7.2 °C
Humidity: 87% 94% 68% 85%
Wind Speed: 16.1km/h 22.5km/h 0.0km/h 8.9km/h
Wind Gust: 19.3km/h 32.2km/h - -
WindSE - - SSW
Pressure: 1017.1 hPa 1019.5 hPa 1017.1 hPa -
Precipitation: 0.0 mm      
Historical Graphs
 
 
Tabular Data for February 16, 2019
Time Temperature Dew Point Pressure Wind Wind Speed Wind Gust Humidity Rainfall Rate (Hourly) solar
00:04 6.9 °C 4.6 °C 1018.8 hPa SSW 9.7 km/h 17.7 km/h 85% 0.0 mm 0.00 W/m2
00:09 6.9 °C 4.6 °C 1018.7 hPa SW 9.7 km/h 12.9 km/h 85% 0.0 mm 0.00 W/m2
00:14 6.9 °C 4.6 °C 1018.8 hPa SSW 8.0 km/h 19.3 km/h 85% 0.0 mm 0.00 W/m2
00:19 6.9 °C 4.6 °C 1018.8 hPa SSW 3.2 km/h 11.3 km/h 85% 0.0 mm 0.00 W/m2
00:24 6.9 °C 4.6 °C 1018.8 hPa SW 4.8 km/h 11.3 km/h 85% 0.0 mm 0.00 W/m2
00:29 6.8 °C 4.5 °C 1018.7 hPa South 11.3 km/h 17.7 km/h 85% 0.0 mm 0.00 W/m2
00:34 6.8 °C 4.5 °C 1018.7 hPa South 4.8 km/h 12.9 km/h 85% 0.0 mm 0.00 W/m2
00:39 6.8 °C 4.5 °C 1018.7 hPa South 11.3 km/h 11.3 km/h 85% 0.0 mm 0.00 W/m2
00:44 6.8 °C 4.5 °C 1018.7 hPa SSW 11.3 km/h 14.5 km/h 85% 0.0 mm 0.00 W/m2
00:49 6.8 °C 4.4 °C 1018.6 hPa South 3.2 km/h 14.5 km/h 85% 0.0 mm 0.00 W/m2
00:54 6.7 °C 4.4 °C 1018.5 hPa South 6.4 km/h 9.7 km/h 85% 0.0 mm 0.00 W/m2
00:59 6.7 °C 4.5 °C 1018.5 hPa South 6.4 km/h 14.5 km/h 86% 0.0 mm 0.00 W/m2
01:04 6.7 °C 4.5 °C 1018.4 hPa South 6.4 km/h 11.3 km/h 86% 0.0 mm 0.00 W/m2
01:09 6.7 °C 4.5 °C 1018.2 hPa SSW 11.3 km/h 16.1 km/h 86% 0.0 mm 0.00 W/m2
01:14 6.7 °C 4.5 °C 1018.1 hPa SSW 11.3 km/h 16.1 km/h 86% 0.0 mm 0.00 W/m2
01:19 6.7 °C 4.5 °C 1018.0 hPa SSW 8.0 km/h 12.9 km/h 86% 0.0 mm 0.00 W/m2
01:24 6.7 °C 4.5 °C 1018.0 hPa South 11.3 km/h 14.5 km/h 86% 0.0 mm 0.00 W/m2
01:29 6.6 °C 4.4 °C 1017.9 hPa SW 6.4 km/h 11.3 km/h 86% 0.0 mm 0.00 W/m2
01:34 6.6 °C 4.4 °C 1018.0 hPa SW 8.0 km/h 12.9 km/h 86% 0.0 mm 0.00 W/m2
01:39 6.6 °C 4.4 °C 1018.0 hPa SSW 4.8 km/h 9.7 km/h 86% 0.0 mm 0.00 W/m2
01:44 6.6 °C 4.4 °C 1018.0 hPa SSW 8.0 km/h 12.9 km/h 86% 0.0 mm 0.00 W/m2
01:49 6.5 °C 4.5 °C 1017.9 hPa SW 6.4 km/h 11.3 km/h 87% 0.0 mm 0.00 W/m2
01:54 6.5 °C 4.5 °C 1017.9 hPa SW 6.4 km/h 14.5 km/h 87% 0.0 mm 0.00 W/m2
01:59 6.6 °C 4.6 °C 1018.0 hPa SW 6.4 km/h 11.3 km/h 87% 0.0 mm 0.00 W/m2
02:04 6.7 °C 4.8 °C 1018.0 hPa SSW 8.0 km/h 19.3 km/h 88% 0.0 mm 0.00 W/m2
02:09 6.8 °C 4.8 °C 1018.0 hPa SSW 9.7 km/h 16.1 km/h 87% 0.0 mm 0.00 W/m2
02:14 6.9 °C 5.1 °C 1017.9 hPa SW 12.9 km/h 12.9 km/h 88% 0.0 mm 0.00 W/m2
02:19 7.0 °C 5.2 °C 1017.8 hPa South 6.4 km/h 14.5 km/h 88% 0.0 mm 0.00 W/m2
02:24 7.1 °C 5.2 °C 1017.7 hPa SSW 8.0 km/h 12.9 km/h 88% 0.0 mm 0.00 W/m2
02:29 7.1 °C 5.3 °C 1017.7 hPa SW 9.7 km/h 12.9 km/h 88% 0.0 mm 0.00 W/m2
02:34 7.2 °C 5.3 °C 1017.7 hPa SW 8.0 km/h 12.9 km/h 88% 0.0 mm 0.00 W/m2
02:40 7.2 °C 5.4 °C 1017.7 hPa SSW 8.0 km/h 12.9 km/h 88% 0.0 mm 0.00 W/m2
02:44 7.3 °C 5.5 °C 1017.7 hPa SW 9.7 km/h 12.9 km/h 88% 0.0 mm 0.00 W/m2
02:49 7.4 °C 5.6 °C 1017.7 hPa WSW 8.0 km/h 12.9 km/h 88% 0.0 mm 0.00 W/m2
02:54 7.4 °C 5.6 °C 1017.6 hPa SSW 3.2 km/h 17.7 km/h 88% 0.0 mm 0.00 W/m2
02:59 7.5 °C 5.6 °C 1017.5 hPa SSW 9.7 km/h 12.9 km/h 88% 0.0 mm 0.00 W/m2
03:04 7.6 °C 5.7 °C 1017.5 hPa South 14.5 km/h 16.1 km/h 88% 0.0 mm 0.00 W/m2
03:09 7.6 °C 5.9 °C 1017.5 hPa SSW 8.0 km/h 17.7 km/h 89% 0.0 mm 0.00 W/m2
03:14 7.7 °C 5.9 °C 1017.5 hPa SW 8.0 km/h 16.1 km/h 89% 0.0 mm 0.00 W/m2
03:19 7.7 °C 6.0 °C 1017.5 hPa SW 8.0 km/h 17.7 km/h 89% 0.0 mm 0.00 W/m2
03:24 7.8 °C 5.9 °C 1017.5 hPa SW 4.8 km/h 11.3 km/h 88% 0.0 mm 0.00 W/m2
03:29 7.8 °C 5.9 °C 1017.6 hPa SW 8.0 km/h 11.3 km/h 88% 0.0 mm 0.00 W/m2
03:34 7.8 °C 6.1 °C 1017.7 hPa SW 12.9 km/h 16.1 km/h 89% 0.0 mm 0.00 W/m2
03:39 7.8 °C 6.1 °C 1017.6 hPa SW 8.0 km/h 11.3 km/h 89% 0.0 mm 0.00 W/m2
03:44 7.8 °C 6.1 °C 1017.6 hPa WSW 6.4 km/h 12.9 km/h 89% 0.0 mm 0.00 W/m2
03:49 7.8 °C 6.1 °C 1017.6 hPa SW 6.4 km/h 9.7 km/h 89% 0.0 mm 0.00 W/m2
03:54 7.7 °C 6.0 °C 1017.5 hPa WSW 6.4 km/h 14.5 km/h 89% 0.0 mm 0.00 W/m2
03:59 7.7 °C 6.0 °C 1017.6 hPa WSW 8.0 km/h 11.3 km/h 89% 0.0 mm 0.00 W/m2
04:04 7.7 °C 6.0 °C 1017.6 hPa SW 8.0 km/h 12.9 km/h 89% 0.0 mm 0.00 W/m2
04:09 7.7 °C 6.0 °C 1017.6 hPa SW 4.8 km/h 11.3 km/h 89% 0.0 mm 0.00 W/m2
04:14 7.7 °C 6.0 °C 1017.5 hPa SW 6.4 km/h 16.1 km/h 89% 0.0 mm 0.00 W/m2
04:19 7.7 °C 6.0 °C 1017.6 hPa SW 4.8 km/h 11.3 km/h 89% 0.0 mm 0.00 W/m2
04:24 7.7 °C 6.0 °C 1017.6 hPa SW 3.2 km/h 11.3 km/h 89% 0.0 mm 0.00 W/m2
04:29 7.8 °C 6.2 °C 1017.7 hPa SSW 6.4 km/h 6.4 km/h 90% 0.0 mm 0.00 W/m2
04:34 7.8 °C 6.2 °C 1017.8 hPa SSW 3.2 km/h 6.4 km/h 90% 0.0 mm 0.00 W/m2
04:39 7.8 °C 6.2 °C 1017.9 hPa SSW 4.8 km/h 6.4 km/h 90% 0.0 mm 0.00 W/m2
04:44 7.8 °C 6.3 °C 1017.9 hPa SSW 3.2 km/h 3.2 km/h 90% 0.0 mm 0.00 W/m2
04:49 7.8 °C 6.3 °C 1018.0 hPa SSW 1.6 km/h 4.8 km/h 90% 0.0 mm 0.00 W/m2
04:54 7.9 °C 6.3 °C 1018.0 hPa SW 6.4 km/h 6.4 km/h 90% 0.0 mm 0.00 W/m2
04:59 7.9 °C 6.4 °C 1018.0 hPa Calm   4.8 km/h 90% 0.0 mm 0.00 W/m2
05:04 8.0 °C 6.4 °C 1017.9 hPa SW 3.2 km/h 6.4 km/h 90% 0.0 mm 0.00 W/m2
05:09 8.1 °C 6.5 °C 1018.0 hPa Calm     90% 0.0 mm 0.00 W/m2
05:14 8.0 °C 6.4 °C 1018.1 hPa Calm     90% 0.0 mm 0.00 W/m2
05:19 8.0 °C 6.4 °C 1018.2 hPa Calm     90% 0.0 mm 0.00 W/m2
05:24 7.9 °C 6.4 °C 1018.2 hPa Calm     90% 0.0 mm 0.00 W/m2
05:29 7.9 °C 6.4 °C 1018.3 hPa Calm     90% 0.0 mm 0.00 W/m2
05:34 8.0 °C 6.6 °C 1018.4 hPa Calm     91% 0.0 mm 0.00 W/m2
05:39 8.1 °C 6.7 °C 1018.4 hPa Calm     91% 0.0 mm 0.00 W/m2
05:44 8.1 °C 6.7 °C 1018.3 hPa SW 1.6 km/h 4.8 km/h 91% 0.0 mm 0.00 W/m2
05:49 8.1 °C 6.7 °C 1018.3 hPa SW 4.8 km/h 8.0 km/h 91% 0.0 mm 0.00 W/m2
05:54 8.1 °C 6.7 °C 1018.4 hPa SW 4.8 km/h 6.4 km/h 91% 0.0 mm 0.00 W/m2
05:59 8.1 °C 6.7 °C 1018.3 hPa SSW 3.2 km/h 8.0 km/h 91% 0.0 mm 0.00 W/m2
06:04 8.1 °C 6.7 °C 1018.3 hPa SSW 4.8 km/h 6.4 km/h 91% 0.0 mm 0.00 W/m2
06:09 8.1 °C 6.7 °C 1018.3 hPa SSW 4.8 km/h 9.7 km/h 91% 0.0 mm 0.00 W/m2
06:14 8.2 °C 6.8 °C 1018.3 hPa SSW 4.8 km/h 9.7 km/h 91% 0.0 mm 0.00 W/m2
06:19 8.2 °C 6.8 °C 1018.2 hPa SSW 3.2 km/h 6.4 km/h 91% 0.0 mm 0.00 W/m2
06:24 8.1 °C 6.7 °C 1018.2 hPa SSW 4.8 km/h 8.0 km/h 91% 0.0 mm 0.00 W/m2
06:29 7.9 °C 6.6 °C 1018.2 hPa SW 11.3 km/h 12.9 km/h 91% 0.0 mm 0.00 W/m2
06:34 7.9 °C 6.5 °C 1018.3 hPa SW 4.8 km/h 11.3 km/h 91% 0.0 mm 0.00 W/m2
06:39 7.8 °C 6.4 °C 1018.4 hPa SSW 8.0 km/h 9.7 km/h 91% 0.0 mm 0.00 W/m2
06:44 7.7 °C 6.3 °C 1018.4 hPa SW 8.0 km/h 8.0 km/h 91% 0.0 mm 0.00 W/m2
06:49 7.6 °C 6.2 °C 1018.5 hPa SW 4.8 km/h 9.7 km/h 91% 0.0 mm 0.00 W/m2
06:54 7.6 °C 6.4 °C 1018.5 hPa SW 6.4 km/h 9.7 km/h 92% 0.0 mm 0.00 W/m2
06:59 7.6 °C 6.3 °C 1018.6 hPa South 4.8 km/h 6.4 km/h 92% 0.0 mm 0.00 W/m2
07:04 7.4 °C 6.2 °C 1018.6 hPa South 6.4 km/h 8.0 km/h 92% 0.0 mm 0.00 W/m2
07:09 7.4 °C 6.2 °C 1018.6 hPa South 8.0 km/h 8.0 km/h 92% 0.0 mm 0.00 W/m2
07:14 7.3 °C 6.1 °C 1018.7 hPa Calm   6.4 km/h 92% 0.0 mm 0.00 W/m2
07:19 7.3 °C 6.1 °C 1018.7 hPa SW 4.8 km/h 8.0 km/h 92% 0.0 mm 0.00 W/m2
07:24 7.3 °C 6.1 °C 1018.8 hPa SW 8.0 km/h 8.0 km/h 92% 0.0 mm 5.00 W/m2
07:29 7.3 °C 6.1 °C 1018.8 hPa SW 8.0 km/h 9.7 km/h 92% 0.0 mm 9.00 W/m2
07:34 7.2 °C 6.0 °C 1018.9 hPa SW 4.8 km/h 9.7 km/h 92% 0.0 mm 11.00 W/m2
07:39 7.2 °C 5.9 °C 1018.8 hPa SSW 6.4 km/h 8.0 km/h 92% 0.0 mm 14.00 W/m2
07:44 7.2 °C 6.1 °C 1018.9 hPa SW 4.8 km/h 8.0 km/h 93% 0.0 mm 28.00 W/m2
07:49 7.2 °C 6.1 °C 1019.1 hPa SW 4.8 km/h 8.0 km/h 93% 0.0 mm 30.00 W/m2
07:54 7.2 °C 6.1 °C 1019.1 hPa SW 8.0 km/h 8.0 km/h 93% 0.0 mm 30.00 W/m2
07:59 7.2 °C 6.1 °C 1019.1 hPa SW 3.2 km/h 6.4 km/h 93% 0.0 mm 42.00 W/m2
08:04 7.2 °C 6.1 °C 1019.1 hPa SW 4.8 km/h 6.4 km/h 93% 0.0 mm 70.00 W/m2
08:09 7.3 °C 6.2 °C 1019.2 hPa SW 4.8 km/h 6.4 km/h 93% 0.0 mm 84.00 W/m2
08:14 7.3 °C 6.3 °C 1019.2 hPa SW 3.2 km/h 6.4 km/h 93% 0.0 mm 105.00 W/m2
08:19 7.6 °C 6.5 °C 1019.2 hPa SW 8.0 km/h 11.3 km/h 93% 0.0 mm 118.00 W/m2
08:24 7.7 °C 6.8 °C 1019.2 hPa WSW 8.0 km/h 11.3 km/h 94% 0.0 mm 141.00 W/m2
08:29 7.9 °C 7.1 °C 1019.2 hPa WSW 9.7 km/h 14.5 km/h 94% 0.0 mm 142.00 W/m2
08:34 8.1 °C 7.2 °C 1019.2 hPa WSW 6.4 km/h 9.7 km/h 94% 0.0 mm 151.00 W/m2
08:39 8.1 °C 7.2 °C 1019.3 hPa SW 4.8 km/h 11.3 km/h 94% 0.0 mm 165.00 W/m2
08:44 8.2 °C 7.1 °C 1019.3 hPa SW 6.4 km/h 12.9 km/h 93% 0.0 mm 158.00 W/m2
08:49 8.2 °C 7.2 °C 1019.3 hPa SW 6.4 km/h 11.3 km/h 93% 0.0 mm 195.00 W/m2
08:54 8.3 °C 7.3 °C 1019.2 hPa SW 6.4 km/h 9.7 km/h 93% 0.0 mm 190.00 W/m2
08:59 8.4 °C 7.4 °C 1019.2 hPa SW 4.8 km/h 12.9 km/h 93% 0.0 mm 207.00 W/m2
09:04 8.6 °C 7.5 °C 1019.2 hPa SW 9.7 km/h 12.9 km/h 93% 0.0 mm 234.00 W/m2
09:09 8.7 °C 7.5 °C 1019.3 hPa WSW 6.4 km/h 12.9 km/h 92% 0.0 mm 188.00 W/m2
09:14 8.9 °C 7.6 °C 1019.3 hPa SW 9.7 km/h 19.3 km/h 91% 0.0 mm 278.00 W/m2
09:19 9.2 °C 7.8 °C 1019.4 hPa WSW 9.7 km/h 12.9 km/h 91% 0.0 mm 302.00 W/m2
09:24 9.3 °C 7.6 °C 1019.5 hPa SW 4.8 km/h 17.7 km/h 89% 0.0 mm 123.00 W/m2
09:29 9.4 °C 7.5 °C 1019.5 hPa SW 14.5 km/h 14.5 km/h 88% 0.0 mm 230.00 W/m2
09:34 9.4 °C 7.6 °C 1019.5 hPa WSW 11.3 km/h 16.1 km/h 88% 0.0 mm 155.00 W/m2
09:39 9.4 °C 7.4 °C 1019.5 hPa SSW 6.4 km/h 12.9 km/h 87% 0.0 mm 162.00 W/m2
09:44 9.5 °C 7.3 °C 1019.4 hPa SW 12.9 km/h 16.1 km/h 86% 0.0 mm 163.00 W/m2
09:49 9.6 °C 7.2 °C 1019.5 hPa WSW 12.9 km/h 16.1 km/h 85% 0.0 mm 125.00 W/m2
09:54 9.7 °C 7.3 °C 1019.5 hPa WSW 8.0 km/h 14.5 km/h 85% 0.0 mm 139.00 W/m2
09:59 9.7 °C 7.3 °C 1019.4 hPa SW 11.3 km/h 12.9 km/h 85% 0.0 mm 137.00 W/m2
10:04 9.8 °C 7.2 °C 1019.5 hPa WSW 14.5 km/h 17.7 km/h 84% 0.0 mm 142.00 W/m2
10:09 9.8 °C 7.3 °C 1019.4 hPa WSW 9.7 km/h 14.5 km/h 84% 0.0 mm 181.00 W/m2
10:14 10.0 °C 7.4 °C 1019.4 hPa SW 9.7 km/h 11.3 km/h 84% 0.0 mm 200.00 W/m2
10:19 10.1 °C 7.2 °C 1019.3 hPa SW 14.5 km/h 25.7 km/h 82% 0.0 mm 186.00 W/m2
10:24 10.2 °C 7.2 °C 1019.3 hPa SW 17.7 km/h 19.3 km/h 82% 0.0 mm 197.00 W/m2
10:29 10.3 °C 7.3 °C 1019.2 hPa WSW 11.3 km/h 20.9 km/h 82% 0.0 mm 123.00 W/m2
10:34 10.3 °C 7.3 °C 1019.3 hPa WSW 14.5 km/h 22.5 km/h 82% 0.0 mm 387.00 W/m2
10:39 10.6 °C 7.8 °C 1019.3 hPa WSW 12.9 km/h 19.3 km/h 83% 0.0 mm 420.00 W/m2
10:44 10.8 °C 7.7 °C 1019.4 hPa WSW 19.3 km/h 25.7 km/h 81% 0.0 mm 413.00 W/m2
10:49 10.9 °C 7.8 °C 1019.4 hPa SSW 11.3 km/h 19.3 km/h 81% 0.0 mm 427.00 W/m2
10:55 10.9 °C 7.4 °C 1019.5 hPa SW 19.3 km/h 24.1 km/h 79% 0.0 mm 424.00 W/m2
10:59 10.9 °C 7.6 °C 1019.4 hPa WSW 16.1 km/h 17.7 km/h 80% 0.0 mm 411.00 W/m2
11:04 10.9 °C 7.6 °C 1019.4 hPa WSW 12.9 km/h 20.9 km/h 80% 0.0 mm 418.00 W/m2
11:14 11.2 °C 7.5 °C 1019.3 hPa WSW 8.0 km/h 22.5 km/h 78% 0.0 mm 455.00 W/m2
11:19 11.3 °C 7.4 °C 1019.4 hPa WSW 9.7 km/h 19.3 km/h 77% 0.0 mm 476.00 W/m2
11:25 11.4 °C 7.6 °C 1019.4 hPa SW 22.5 km/h 22.5 km/h 77% 0.0 mm 434.00 W/m2
11:29 11.4 °C 7.1 °C 1019.4 hPa WSW 11.3 km/h 32.2 km/h 75% 0.0 mm 418.00 W/m2
11:34 11.5 °C 7.4 °C 1019.4 hPa WSW 11.3 km/h 19.3 km/h 76% 0.0 mm 418.00 W/m2
11:39 11.5 °C 7.0 °C 1019.3 hPa SW 17.7 km/h 27.4 km/h 74% 0.0 mm 424.00 W/m2
11:44 11.4 °C 7.2 °C 1019.4 hPa West 20.9 km/h 24.1 km/h 75% 0.0 mm 425.00 W/m2
11:49 11.2 °C 6.9 °C 1019.4 hPa West 12.9 km/h 20.9 km/h 75% 0.0 mm 127.00 W/m2
11:54 11.2 °C 7.3 °C 1019.4 hPa WSW 17.7 km/h 17.7 km/h 77% 0.0 mm 489.00 W/m2
11:59 11.6 °C 7.9 °C 1019.4 hPa SW 17.7 km/h 17.7 km/h 78% 0.0 mm 545.00 W/m2
12:04 11.9 °C 7.8 °C 1019.3 hPa WSW 19.3 km/h 19.3 km/h 76% 0.0 mm 497.00 W/m2
12:09 12.0 °C 7.5 °C 1019.2 hPa SW 17.7 km/h 19.3 km/h 74% 0.0 mm 459.00 W/m2
12:14 11.9 °C 7.4 °C 1019.2 hPa SSW 14.5 km/h 14.5 km/h 74% 0.0 mm 455.00 W/m2
12:19 11.8 °C 7.3 °C 1019.2 hPa WSW 6.4 km/h 19.3 km/h 74% 0.0 mm 381.00 W/m2
12:24 11.5 °C 7.0 °C 1019.2 hPa SW 14.5 km/h 20.9 km/h 74% 0.0 mm 98.00 W/m2
12:27 11.3 °C 6.9 °C 1019.2 hPa West 17.7 km/h 22.5 km/h 74% 0.0 mm 146.00 W/m2
13:04 12.4 °C 7.3 °C 1018.9 hPa SW 12.9 km/h 20.9 km/h 71% 0.0 mm 411.00 W/m2
13:09 12.6 °C 7.2 °C 1018.8 hPa SSW 9.7 km/h 19.3 km/h 70% 0.0 mm 410.00 W/m2
13:14 12.5 °C 7.2 °C 1018.7 hPa SW 20.9 km/h 20.9 km/h 70% 0.0 mm 401.00 W/m2
13:19 12.6 °C 7.5 °C 1018.7 hPa WSW 6.4 km/h 14.5 km/h 71% 0.0 mm 397.00 W/m2
13:24 12.8 °C 7.4 °C 1018.6 hPa SW 14.5 km/h 16.1 km/h 70% 0.0 mm 396.00 W/m2
13:29 12.8 °C 7.7 °C 1018.5 hPa South 9.7 km/h 19.3 km/h 71% 0.0 mm 385.00 W/m2
13:34 12.8 °C 7.7 °C 1018.5 hPa SW 16.1 km/h 16.1 km/h 71% 0.0 mm 383.00 W/m2
13:39 12.9 °C 7.6 °C 1018.4 hPa WSW 11.3 km/h 19.3 km/h 70% 0.0 mm 374.00 W/m2
13:44 12.8 °C 7.3 °C 1018.3 hPa WSW 14.5 km/h 19.3 km/h 69% 0.0 mm 362.00 W/m2
13:49 12.8 °C 7.5 °C 1018.2 hPa SW 14.5 km/h 20.9 km/h 70% 0.0 mm 357.00 W/m2
13:54 12.9 °C 7.4 °C 1018.2 hPa WSW 14.5 km/h 22.5 km/h 69% 0.0 mm 360.00 W/m2
13:59 13.0 °C 7.4 °C 1018.2 hPa SW 11.3 km/h 16.1 km/h 69% 0.0 mm 341.00 W/m2
14:04 13.1 °C 7.3 °C 1018.3 hPa SW 12.9 km/h 22.5 km/h 68% 0.0 mm 339.00 W/m2
14:09 13.1 °C 7.3 °C 1018.1 hPa SW 9.7 km/h 29.0 km/h 68% 0.0 mm 332.00 W/m2
14:14 12.9 °C 7.2 °C 1018.0 hPa SW 16.1 km/h 27.4 km/h 68% 0.0 mm 329.00 W/m2
14:20 12.9 °C 7.1 °C 1018.0 hPa South 12.9 km/h 22.5 km/h 68% 0.0 mm 318.00 W/m2
14:24 12.9 °C 7.6 °C 1018.1 hPa SSW 17.7 km/h 24.1 km/h 70% 0.0 mm 313.00 W/m2
14:29 12.9 °C 7.6 °C 1018.1 hPa South 14.5 km/h 22.5 km/h 70% 0.0 mm 309.00 W/m2
14:34 13.0 °C 7.7 °C 1018.0 hPa SW 11.3 km/h 17.7 km/h 70% 0.0 mm 299.00 W/m2
14:39 13.1 °C 7.6 °C 1017.9 hPa SSW 14.5 km/h 24.1 km/h 69% 0.0 mm 283.00 W/m2
14:44 13.0 °C 7.2 °C 1017.8 hPa SW 12.9 km/h 19.3 km/h 68% 0.0 mm 278.00 W/m2
14:49 12.9 °C 7.6 °C 1017.9 hPa SSW 14.5 km/h 29.0 km/h 70% 0.0 mm 267.00 W/m2
14:54 12.8 °C 7.4 °C 1017.8 hPa SW 22.5 km/h 30.6 km/h 70% 0.0 mm 260.00 W/m2
14:59 12.7 °C 7.4 °C 1017.8 hPa SSW 11.3 km/h 25.7 km/h 70% 0.0 mm 253.00 W/m2
15:04 12.8 °C 7.4 °C 1017.8 hPa WSW 9.7 km/h 25.7 km/h 70% 0.0 mm 241.00 W/m2
15:09 12.8 °C 7.8 °C 1017.8 hPa SSW 6.4 km/h 14.5 km/h 72% 0.0 mm 229.00 W/m2
15:14 12.8 °C 7.7 °C 1017.8 hPa WSW 9.7 km/h 22.5 km/h 71% 0.0 mm 216.00 W/m2
15:19 12.8 °C 7.7 °C 1017.7 hPa SW 11.3 km/h 25.7 km/h 71% 0.0 mm 204.00 W/m2
15:24 12.7 °C 7.8 °C 1017.6 hPa SW 12.9 km/h 19.3 km/h 72% 0.0 mm 174.00 W/m2
15:29 12.5 °C 7.8 °C 1017.6 hPa SSW 11.3 km/h 14.5 km/h 73% 0.0 mm 65.00 W/m2
15:34 12.2 °C 7.5 °C 1017.6 hPa SW 8.0 km/h 22.5 km/h 73% 0.0 mm 70.00 W/m2
15:39 12.1 °C 7.6 °C 1017.6 hPa SW 6.4 km/h 17.7 km/h 74% 0.0 mm 70.00 W/m2
15:44 12.0 °C 7.7 °C 1017.5 hPa SW 11.3 km/h 12.9 km/h 75% 0.0 mm 84.00 W/m2
15:49 12.0 °C 7.7 °C 1017.5 hPa SW 9.7 km/h 17.7 km/h 75% 0.0 mm 118.00 W/m2
15:54 11.9 °C 7.8 °C 1017.4 hPa SW 12.9 km/h 17.7 km/h 76% 0.0 mm 77.00 W/m2
15:59 12.1 °C 7.8 °C 1017.4 hPa SSW 11.3 km/h 17.7 km/h 75% 0.0 mm 102.00 W/m2
16:04 12.1 °C 7.8 °C 1017.3 hPa SW 9.7 km/h 9.7 km/h 75% 0.0 mm 62.00 W/m2
16:09 12.0 °C 7.7 °C 1017.2 hPa SW 8.0 km/h 17.7 km/h 75% 0.0 mm 44.00 W/m2
16:15 11.8 °C 7.7 °C 1017.2 hPa South 16.1 km/h 16.1 km/h 76% 0.0 mm 44.00 W/m2
16:19 11.7 °C 7.6 °C 1017.2 hPa SW 8.0 km/h 17.7 km/h 76% 0.0 mm 40.00 W/m2
16:24 11.6 °C 7.7 °C 1017.1 hPa South 4.8 km/h 12.9 km/h 77% 0.0 mm 33.00 W/m2
16:29 11.5 °C 8.0 °C 1017.2 hPa SSW 17.7 km/h 17.7 km/h 79% 0.0 mm 37.00 W/m2
16:34 11.3 °C 8.2 °C 1017.3 hPa SSE 8.0 km/h 12.9 km/h 81% 0.0 mm 32.00 W/m2
16:39 11.3 °C 8.3 °C 1017.2 hPa SSW 4.8 km/h 11.3 km/h 82% 0.0 mm 26.00 W/m2
16:44 11.3 °C 8.3 °C 1017.2 hPa SSW 9.7 km/h 19.3 km/h 82% 0.0 mm 19.00 W/m2
16:49 11.2 °C 8.4 °C 1017.3 hPa SSW 4.8 km/h 11.3 km/h 83% 0.0 mm 16.00 W/m2
16:54 11.2 °C 8.6 °C 1017.2 hPa SW 8.0 km/h 14.5 km/h 84% 0.0 mm 14.00 W/m2
16:59 11.2 °C 8.6 °C 1017.2 hPa South 14.5 km/h 16.1 km/h 84% 0.0 mm 9.00 W/m2
17:04 11.2 °C 8.8 °C 1017.2 hPa SW 8.0 km/h 19.3 km/h 85% 0.0 mm 7.00 W/m2
17:09 11.2 °C 8.7 °C 1017.2 hPa SW 6.4 km/h 11.3 km/h 85% 0.0 mm 0.00 W/m2
17:14 11.2 °C 8.7 °C 1017.2 hPa South 6.4 km/h 9.7 km/h 85% 0.0 mm 0.00 W/m2
17:19 11.1 °C 8.7 °C 1017.2 hPa South 6.4 km/h 11.3 km/h 85% 0.0 mm 0.00 W/m2
17:24 11.1 °C 8.7 °C 1017.1 hPa SSW 9.7 km/h 12.9 km/h 85% 0.0 mm 0.00 W/m2
17:29 11.1 °C 8.8 °C 1017.2 hPa South 8.0 km/h 8.0 km/h 86% 0.0 mm 0.00 W/m2
17:34 11.2 °C 8.9 °C 1017.2 hPa South 4.8 km/h 9.7 km/h 86% 0.0 mm 0.00 W/m2
17:39 11.2 °C 8.9 °C 1017.2 hPa SSE 3.2 km/h 8.0 km/h 86% 0.0 mm 0.00 W/m2
17:44 11.2 °C 8.9 °C 1017.3 hPa Calm   9.7 km/h 86% 0.0 mm 0.00 W/m2
17:49 11.2 °C 8.9 °C 1017.4 hPa SE 8.0 km/h 14.5 km/h 86% 0.0 mm 0.00 W/m2
17:54 11.2 °C 8.9 °C 1017.4 hPa South 11.3 km/h 11.3 km/h 86% 0.0 mm 0.00 W/m2
17:59 11.2 °C 8.9 °C 1017.5 hPa South 3.2 km/h 11.3 km/h 86% 0.0 mm 0.00 W/m2
18:04 11.2 °C 8.9 °C 1017.4 hPa SSW 8.0 km/h 11.3 km/h 86% 0.0 mm 0.00 W/m2
18:09 11.2 °C 8.9 °C 1017.4 hPa South 4.8 km/h 11.3 km/h 86% 0.0 mm 0.00 W/m2
18:14 11.2 °C 8.9 °C 1017.5 hPa South 8.0 km/h 16.1 km/h 86% 0.0 mm 0.00 W/m2
18:19 11.2 °C 8.9 °C 1017.5 hPa SSW 3.2 km/h 11.3 km/h 86% 0.0 mm 0.00 W/m2
18:24 11.2 °C 9.1 °C 1017.5 hPa SSW 9.7 km/h 16.1 km/h 87% 0.0 mm 0.00 W/m2
18:30 11.2 °C 9.1 °C 1017.5 hPa Calm   8.0 km/h 87% 0.0 mm 0.00 W/m2
18:34 11.1 °C 9.0 °C 1017.6 hPa SSW 3.2 km/h 16.1 km/h 87% 0.0 mm 0.00 W/m2
18:39 11.1 °C 9.0 °C 1017.6 hPa SSE 6.4 km/h 16.1 km/h 87% 0.0 mm 0.00 W/m2
18:44 11.1 °C 8.9 °C 1017.6 hPa SE 3.2 km/h 8.0 km/h 87% 0.0 mm 0.00 W/m2
18:49 11.1 °C 8.9 °C 1017.5 hPa SSE 11.3 km/h 14.5 km/h 87% 0.0 mm 0.00 W/m2
18:54 11.1 °C 9.2 °C 1017.5 hPa SSW 9.7 km/h 14.5 km/h 88% 0.0 mm 0.00 W/m2
18:59 11.1 °C 9.2 °C 1017.5 hPa SSE 6.4 km/h 16.1 km/h 88% 0.0 mm 0.00 W/m2
19:04 11.1 °C 9.2 °C 1017.4 hPa South 12.9 km/h 14.5 km/h 88% 0.0 mm 0.00 W/m2
19:09 11.1 °C 9.2 °C 1017.4 hPa SE 17.7 km/h 20.9 km/h 88% 0.0 mm 0.00 W/m2
19:14 11.1 °C 9.2 °C 1017.3 hPa South 14.5 km/h 20.9 km/h 88% 0.0 mm 0.00 W/m2
19:19 11.1 °C 9.2 °C 1017.3 hPa SSW 17.7 km/h 17.7 km/h 88% 0.0 mm 0.00 W/m2
19:24 11.1 °C 9.2 °C 1017.3 hPa South 6.4 km/h 12.9 km/h 88% 0.0 mm 0.00 W/m2
19:29 11.1 °C 9.2 °C 1017.3 hPa SSW 8.0 km/h 16.1 km/h 88% 0.0 mm 0.00 W/m2
19:34 11.1 °C 9.2 °C 1017.3 hPa SE 11.3 km/h 11.3 km/h 88% 0.0 mm 0.00 W/m2
19:39 11.1 °C 9.2 °C 1017.3 hPa SSE 8.0 km/h 14.5 km/h 88% 0.0 mm 0.00 W/m2
19:44 11.1 °C 9.2 °C 1017.3 hPa SSE 11.3 km/h 19.3 km/h 88% 0.0 mm 0.00 W/m2
19:49 11.1 °C 9.2 °C 1017.3 hPa SW 11.3 km/h 16.1 km/h 88% 0.0 mm 0.00 W/m2
19:54 11.1 °C 9.2 °C 1017.3 hPa SSE 8.0 km/h 16.1 km/h 88% 0.0 mm 0.00 W/m2
19:59 11.2 °C 9.2 °C 1017.3 hPa SSW 9.7 km/h 22.5 km/h 88% 0.0 mm 0.00 W/m2
20:04 11.2 °C 9.2 °C 1017.3 hPa SW 9.7 km/h 9.7 km/h 88% 0.0 mm 0.00 W/m2
20:09 11.2 °C 9.2 °C 1017.3 hPa South 8.0 km/h 22.5 km/h 88% 0.0 mm 0.00 W/m2
20:14 11.2 °C 9.2 °C 1017.2 hPa SSW 6.4 km/h 22.5 km/h 88% 0.0 mm 0.00 W/m2
20:19 11.2 °C 9.2 °C 1017.2 hPa SSE 9.7 km/h 19.3 km/h 88% 0.0 mm 0.00 W/m2
20:24 11.2 °C 9.2 °C 1017.3 hPa South 17.7 km/h 20.9 km/h 88% 0.0 mm 0.00 W/m2
20:29 11.2 °C 9.2 °C 1017.3 hPa South 12.9 km/h 17.7 km/h 88% 0.0 mm 0.00 W/m2
20:34 11.2 °C 9.2 °C 1017.2 hPa SSW 8.0 km/h 16.1 km/h 88% 0.0 mm 0.00 W/m2
20:39 11.2 °C 9.2 °C 1017.3 hPa South 6.4 km/h 12.9 km/h 88% 0.0 mm 0.00 W/m2
20:44 11.2 °C 9.2 °C 1017.2 hPa SSW 8.0 km/h 16.1 km/h 88% 0.0 mm 0.00 W/m2
20:49 11.2 °C 9.2 °C 1017.2 hPa South 12.9 km/h 20.9 km/h 88% 0.0 mm 0.00 W/m2
20:54 11.2 °C 9.2 °C 1017.3 hPa SSE 9.7 km/h 19.3 km/h 88% 0.0 mm 0.00 W/m2
20:59 11.2 °C 9.2 °C 1017.3 hPa South 4.8 km/h 14.5 km/h 88% 0.0 mm 0.00 W/m2
21:04 11.1 °C 9.2 °C 1017.3 hPa South 4.8 km/h 16.1 km/h 88% 0.0 mm 0.00 W/m2
21:09 11.1 °C 9.2 °C 1017.4 hPa SSE 14.5 km/h 19.3 km/h 88% 0.0 mm 0.00 W/m2
21:14 11.1 °C 9.2 °C 1017.4 hPa South 3.2 km/h 14.5 km/h 88% 0.0 mm 0.00 W/m2
21:19 11.1 °C 9.2 °C 1017.4 hPa South 8.0 km/h 17.7 km/h 88% 0.0 mm 0.00 W/m2
21:24 11.1 °C 9.2 °C 1017.2 hPa SSE 16.1 km/h 17.7 km/h 88% 0.0 mm 0.00 W/m2
21:29 11.1 °C 8.9 °C 1017.2 hPa South 14.5 km/h 19.3 km/h 87% 0.0 mm 0.00 W/m2
21:35 11.1 °C 8.9 °C 1017.2 hPa South 8.0 km/h 19.3 km/h 87% 0.0 mm 0.00 W/m2
21:39 11.1 °C 9.0 °C 1017.2 hPa SSE 11.3 km/h 16.1 km/h 87% 0.0 mm 0.00 W/m2
21:44 11.1 °C 8.9 °C 1017.1 hPa SE 16.1 km/h 19.3 km/h 87% 0.0 mm 0.00 W/m2
Compliments of Weather Underground - 3.75 mb